createdAt,value
2022-08-07T00:00:50.569Z,43.69
2022-08-07T00:02:36.593Z,43.29
2022-08-07T00:02:50.542Z,44.61
2022-08-07T00:03:49.507Z,41.65
2022-08-07T00:04:49.571Z,42.26
2022-08-07T00:05:49.486Z,44.31
2022-08-07T00:06:51.696Z,41.96
2022-08-07T00:07:50.629Z,41.65
2022-08-07T00:08:50.479Z,41.65
2022-08-07T00:09:59.223Z,42.97
2022-08-07T00:10:57.241Z,40.94
2022-08-07T00:11:56.118Z,43.90
2022-08-07T00:12:57.958Z,43.38
2022-08-07T00:13:50.419Z,44.02
2022-08-07T00:14:49.384Z,43.30
2022-08-07T00:15:51.251Z,42.90
2022-08-07T00:16:49.360Z,41.44
2022-08-07T00:17:49.354Z,40.22
2022-08-07T00:18:49.339Z,39.81
2022-08-07T00:20:00.883Z,40.73
2022-08-07T00:20:49.490Z,40.94
2022-08-07T00:21:57.026Z,41.14
2022-08-07T00:22:51.620Z,40.73
2022-08-07T00:23:49.284Z,44.32
2022-08-07T00:24:49.274Z,42.08
2022-08-07T00:25:58.244Z,42.79
2022-08-07T00:27:06.167Z,42.79
2022-08-07T00:27:53.125Z,42.29
2022-08-07T00:28:55.606Z,44.32
2022-08-07T00:29:50.238Z,45.17
2022-08-07T00:30:49.205Z,43.22
2022-08-07T00:31:49.231Z,44.45
2022-08-07T00:32:49.184Z,42.81
2022-08-07T00:33:49.170Z,42.00
2022-08-07T00:34:49.162Z,42.50
2022-08-07T00:35:49.353Z,40.56
2022-08-07T00:36:49.137Z,40.36
2022-08-07T00:37:49.127Z,39.75
2022-08-07T00:38:49.119Z,38.81
2022-08-07T00:39:54.564Z,37.99
2022-08-07T00:40:49.137Z,37.99
2022-08-07T00:41:53.809Z,38.20
2022-08-07T00:42:50.284Z,38.30
2022-08-07T00:44:00.412Z,39.53
2022-08-07T00:44:49.185Z,42.10
2022-08-07T00:45:49.160Z,41.49
2022-08-07T00:46:49.158Z,41.08
2022-08-07T00:48:08.277Z,39.03
2022-08-07T00:48:49.749Z,38.11
2022-08-07T00:50:20.545Z,39.14
2022-08-07T00:50:51.259Z,38.21
2022-08-07T00:51:56.697Z,36.38
2022-08-07T00:52:48.962Z,35.76
2022-08-07T00:53:50.466Z,36.36
2022-08-07T00:54:53.850Z,35.24
2022-08-07T00:56:02.765Z,34.52
2022-08-07T00:56:50.146Z,36.47
2022-08-07T00:57:55.366Z,38.01
2022-08-07T00:58:50.138Z,37.91
2022-08-07T00:59:48.884Z,38.01
2022-08-07T01:00:53.432Z,36.47
2022-08-07T01:01:48.931Z,38.11
2022-08-07T01:02:48.855Z,38.95
2022-08-07T01:03:57.093Z,37.72
2022-08-07T01:04:49.853Z,40.38
2022-08-07T01:05:53.520Z,41.09
2022-08-07T01:06:48.810Z,38.95
2022-08-07T01:07:49.150Z,38.95
2022-08-07T01:08:53.946Z,37.62
2022-08-07T01:10:04.254Z,35.88
2022-08-07T01:10:54.407Z,36.49
2022-08-07T01:12:09.144Z,37.62
2022-08-07T01:12:53.894Z,35.47
2022-08-07T01:13:55.920Z,35.58
2022-08-07T01:14:48.723Z,36.60
2022-08-07T01:16:04.985Z,36.80
2022-08-07T01:16:48.699Z,36.19
2022-08-07T01:17:48.687Z,36.70
2022-08-07T01:18:48.678Z,37.52
2022-08-07T01:19:52.391Z,37.41
2022-08-07T01:20:57.433Z,37.72
2022-08-07T01:21:48.645Z,38.03
2022-08-07T01:22:54.349Z,37.72
2022-08-07T01:23:48.625Z,37.31
2022-08-07T01:24:48.613Z,38.13
2022-08-07T01:25:55.146Z,36.49
2022-08-07T01:26:52.270Z,38.23
2022-08-07T01:27:51.459Z,37.23
2022-08-07T01:28:48.654Z,37.43
2022-08-07T01:29:48.555Z,39.17
2022-08-07T01:30:48.547Z,39.78
2022-08-07T01:31:48.840Z,38.96
2022-08-07T01:32:48.526Z,38.96
2022-08-07T01:33:55.484Z,37.33
2022-08-07T01:34:49.210Z,36.92
2022-08-07T01:35:54.055Z,37.02
2022-08-07T01:36:52.644Z,38.15
2022-08-07T01:37:49.493Z,39.28
2022-08-07T01:38:48.461Z,40.52
2022-08-07T01:39:48.527Z,38.68
2022-08-07T01:40:48.437Z,38.47
2022-08-07T01:42:01.434Z,38.06
2022-08-07T01:42:57.602Z,37.96
2022-08-07T01:43:48.405Z,38.98
2022-08-07T01:44:48.394Z,37.04
2022-08-07T01:45:48.389Z,37.76
2022-08-07T01:46:49.395Z,35.50
2022-08-07T01:48:21.030Z,35.81
2022-08-07T01:48:49.373Z,35.20
2022-08-07T01:49:48.337Z,39.39
2022-08-07T01:50:48.329Z,37.57
2022-08-07T01:52:04.071Z,35.91
2022-08-07T01:52:54.098Z,34.69
2022-08-07T01:54:08.879Z,34.38
2022-08-07T01:54:48.284Z,34.17
2022-08-07T01:55:48.272Z,34.28
2022-08-07T01:56:49.305Z,35.40
2022-08-07T01:58:06.136Z,35.50
2022-08-07T01:58:48.241Z,37.24
2022-08-07T01:59:48.346Z,36.96
2022-08-07T02:00:49.260Z,37.16
2022-08-07T02:01:59.942Z,37.67
2022-08-07T02:03:16.010Z,36.34
2022-08-07T02:03:50.875Z,35.31
2022-08-07T02:04:56.473Z,34.07
2022-08-07T02:05:59.964Z,33.56
2022-08-07T02:06:48.153Z,34.48
2022-08-07T02:07:51.115Z,34.48
2022-08-07T02:08:48.130Z,34.80
2022-08-07T02:09:52.721Z,34.07
2022-08-07T02:10:48.667Z,34.07
2022-08-07T02:12:03.572Z,37.37
2022-08-07T02:12:50.257Z,35.52
2022-08-07T02:13:57.478Z,34.80
2022-08-07T02:14:48.064Z,34.39
2022-08-07T02:15:48.051Z,34.50
2022-08-07T02:16:48.049Z,35.42
2022-08-07T02:17:49.534Z,36.75
2022-08-07T02:18:48.023Z,36.44
2022-08-07T02:20:07.241Z,35.72
2022-08-07T02:20:49.022Z,35.42
2022-08-07T02:21:56.191Z,35.72
2022-08-07T02:22:54.924Z,35.42
2022-08-07T02:23:47.965Z,35.95
2022-08-07T02:24:48.609Z,36.56
2022-08-07T02:26:30.636Z,38.92
2022-08-07T02:26:47.933Z,40.25
2022-08-07T02:27:52.183Z,38.82
2022-08-07T02:28:47.934Z,36.87
2022-08-07T02:29:53.940Z,35.13
2022-08-07T02:30:47.889Z,34.11
2022-08-07T02:31:48.586Z,36.87
2022-08-07T02:33:00.593Z,38.71
2022-08-07T02:34:01.888Z,36.77
2022-08-07T02:34:48.966Z,35.85
2022-08-07T02:36:30.917Z,36.36
2022-08-07T02:36:47.824Z,36.36
2022-08-07T02:37:47.811Z,39.25
2022-08-07T02:38:50.660Z,37.60
2022-08-07T02:40:02.572Z,38.93
2022-08-07T02:40:50.441Z,38.93
2022-08-07T02:41:54.268Z,37.40
2022-08-07T02:42:48.782Z,38.63
2022-08-07T02:43:49.097Z,38.65
2022-08-07T02:44:48.239Z,37.19
2022-08-07T02:45:58.635Z,38.44
2022-08-07T02:46:52.849Z,38.34
2022-08-07T02:47:49.164Z,35.66
2022-08-07T02:48:54.945Z,34.53
2022-08-07T02:49:57.852Z,33.61
2022-08-07T02:50:48.697Z,35.25
2022-08-07T02:51:51.977Z,35.76
2022-08-07T02:52:48.641Z,36.17
2022-08-07T02:53:47.635Z,35.14
2022-08-07T02:54:47.630Z,35.25
2022-08-07T02:56:04.025Z,35.25
2022-08-07T02:56:48.627Z,35.14
2022-08-07T02:57:47.593Z,33.92
2022-08-07T02:58:48.344Z,33.71
2022-08-07T02:59:55.125Z,33.61
2022-08-07T03:00:48.619Z,33.71
2022-08-07T03:01:47.575Z,35.04
2022-08-07T03:02:54.330Z,36.89
2022-08-07T03:03:49.815Z,39.26
2022-08-07T03:04:47.519Z,36.60
2022-08-07T03:05:47.503Z,35.88
2022-08-07T03:06:48.359Z,37.83
2022-08-07T03:08:05.053Z,38.56
2022-08-07T03:08:48.496Z,39.79
2022-08-07T03:09:51.980Z,37.84
2022-08-07T03:10:47.449Z,36.51
2022-08-07T03:11:51.650Z,36.10
2022-08-07T03:12:47.428Z,35.06
2022-08-07T03:13:49.685Z,34.55
2022-08-07T03:14:51.984Z,36.49
2022-08-07T03:15:56.696Z,37.33
2022-08-07T03:16:47.390Z,36.72
2022-08-07T03:17:53.396Z,36.51
2022-08-07T03:18:48.386Z,36.30
2022-08-07T03:19:55.063Z,38.97
2022-08-07T03:20:48.363Z,38.87
2022-08-07T03:21:50.874Z,37.43
2022-08-07T03:22:50.295Z,37.54
2022-08-07T03:24:20.591Z,37.33
2022-08-07T03:24:47.295Z,37.74
2022-08-07T03:25:47.282Z,34.77
2022-08-07T03:26:57.851Z,33.54
2022-08-07T03:27:59.712Z,33.62
2022-08-07T03:28:48.279Z,33.93
2022-08-07T03:29:50.546Z,34.34
2022-08-07T03:30:47.229Z,32.60
2022-08-07T03:31:49.952Z,32.50
2022-08-07T03:32:57.062Z,32.29
2022-08-07T03:33:47.195Z,31.88
2022-08-07T03:35:01.063Z,32.09
2022-08-07T03:35:50.110Z,32.70
2022-08-07T03:36:47.163Z,33.01
2022-08-07T03:37:54.054Z,35.28
2022-08-07T03:38:47.149Z,34.36
2022-08-07T03:40:13.106Z,36.30
2022-08-07T03:40:47.163Z,33.95
2022-08-07T03:41:47.719Z,34.66
2022-08-07T03:42:47.095Z,36.51
2022-08-07T03:43:57.294Z,35.49
2022-08-07T03:44:53.496Z,36.82
2022-08-07T03:45:47.687Z,35.49
2022-08-07T03:47:13.441Z,36.73
2022-08-07T03:47:51.215Z,35.19
2022-08-07T03:49:02.712Z,33.64
2022-08-07T03:49:47.701Z,33.95
2022-08-07T03:50:55.662Z,33.84
2022-08-07T03:52:01.208Z,35.49
2022-08-07T03:52:48.011Z,34.25
2022-08-07T03:54:01.952Z,34.87
2022-08-07T03:54:54.818Z,34.77
2022-08-07T03:55:58.188Z,35.08
2022-08-07T03:57:03.728Z,36.51
2022-08-07T03:58:33.677Z,35.08
2022-08-07T03:59:09.712Z,37.54
2022-08-07T04:00:01.701Z,35.60
2022-08-07T04:00:54.008Z,35.60
2022-08-07T04:01:46.977Z,34.78
2022-08-07T04:02:47.475Z,34.05
2022-08-07T04:03:49.735Z,34.36
2022-08-07T04:04:47.881Z,34.46
2022-08-07T04:05:46.842Z,33.74
2022-08-07T04:06:50.872Z,36.92
2022-08-07T04:07:47.716Z,33.84
2022-08-07T04:08:46.812Z,35.28
2022-08-07T04:09:50.512Z,33.33
2022-08-07T04:10:54.832Z,32.92
2022-08-07T04:12:23.946Z,33.03
2022-08-07T04:12:47.790Z,32.61
2022-08-07T04:14:09.945Z,32.82
2022-08-07T04:14:47.739Z,32.71
2022-08-07T04:15:49.138Z,35.08
2022-08-07T04:16:58.705Z,35.79
2022-08-07T04:18:56.815Z,35.28
2022-08-07T04:18:59.130Z,34.97
2022-08-07T04:19:52.682Z,34.66
2022-08-07T04:20:54.759Z,34.15
2022-08-07T04:21:58.841Z,33.95
2022-08-07T04:22:53.817Z,33.95
2022-08-07T04:24:07.233Z,34.77
2022-08-07T04:24:47.658Z,33.54
2022-08-07T04:25:46.625Z,34.97
2022-08-07T04:26:46.613Z,33.95
2022-08-07T04:28:00.280Z,33.12
2022-08-07T04:28:46.588Z,32.92
2022-08-07T04:29:48.822Z,32.29
2022-08-07T04:30:57.400Z,32.09
2022-08-07T04:32:03.085Z,33.01
2022-08-07T04:32:47.798Z,34.66
2022-08-07T04:33:46.540Z,34.25
2022-08-07T04:34:47.549Z,34.15
2022-08-07T04:35:50.512Z,33.54
2022-08-07T04:36:48.866Z,33.22
2022-08-07T04:38:03.520Z,32.19
2022-08-07T04:38:47.506Z,33.01
2022-08-07T04:39:49.745Z,32.39
2022-08-07T04:40:51.828Z,33.01
2022-08-07T04:41:48.280Z,31.88
2022-08-07T04:42:46.438Z,31.88
2022-08-07T04:44:09.827Z,31.05
2022-08-07T04:44:54.616Z,30.94
2022-08-07T04:46:00.913Z,32.07
2022-08-07T04:47:04.612Z,31.35
2022-08-07T04:48:00.759Z,33.00
2022-08-07T04:48:47.394Z,32.07
2022-08-07T04:49:57.384Z,31.76
2022-08-07T04:50:52.881Z,31.44
2022-08-07T04:51:46.339Z,31.24
2022-08-07T04:52:51.002Z,31.24
2022-08-07T04:54:05.535Z,31.34
2022-08-07T04:54:50.711Z,31.13
2022-08-07T04:58:11.440Z,32.16
2022-08-07T04:58:15.262Z,31.13
2022-08-07T04:58:24.423Z,31.44
2022-08-07T05:00:11.170Z,31.24
2022-08-07T05:00:46.300Z,31.94
2022-08-07T05:01:46.226Z,31.84
2022-08-07T05:02:46.220Z,31.84
2022-08-07T05:04:06.725Z,33.58
2022-08-07T05:04:50.166Z,31.00
2022-08-07T05:05:53.028Z,30.26
2022-08-07T05:06:51.653Z,29.43
2022-08-07T05:07:48.492Z,28.39
2022-08-07T05:09:01.206Z,29.30
2022-08-07T05:09:47.167Z,28.06
2022-08-07T05:10:46.130Z,28.66
2022-08-07T05:11:58.210Z,28.95
2022-08-07T05:12:51.486Z,30.99
2022-08-07T05:14:53.975Z,30.16
2022-08-07T05:14:54.969Z,31.06
2022-08-07T05:15:47.101Z,32.79
2022-08-07T05:16:46.068Z,33.39
2022-08-07T05:17:52.204Z,36.22
2022-08-07T05:18:47.067Z,38.26
2022-08-07T05:19:46.034Z,39.15
2022-08-07T05:20:46.026Z,45.36
2022-08-07T05:22:00.035Z,47.60
2022-08-07T05:22:45.997Z,48.08
2022-08-07T05:23:45.984Z,48.39
2022-08-07T05:24:45.975Z,50.90
2022-08-07T05:26:11.611Z,51.51
2022-08-07T05:26:47.178Z,50.60
2022-08-07T05:28:03.307Z,52.81
2022-08-07T05:28:48.420Z,56.98
2022-08-07T05:29:51.266Z,60.74
2022-08-07T05:30:47.222Z,61.55
2022-08-07T05:31:47.628Z,60.30
2022-08-07T05:32:45.890Z,62.84
2022-08-07T05:34:01.283Z,63.34
2022-08-07T05:34:46.909Z,62.74
2022-08-07T05:35:45.856Z,63.72
2022-08-07T05:36:48.956Z,65.45
2022-08-07T05:37:45.834Z,64.53
2022-08-07T05:39:00.107Z,66.77
2022-08-07T05:40:18.143Z,68.08
2022-08-07T05:40:51.383Z,68.46
2022-08-07T05:42:02.657Z,69.20
2022-08-07T05:42:56.204Z,68.76
2022-08-07T05:44:07.537Z,67.78
2022-08-07T05:44:46.484Z,66.16
2022-08-07T05:45:48.312Z,65.55
2022-08-07T05:46:45.730Z,63.65
2022-08-07T05:48:01.331Z,61.41
2022-08-07T05:48:58.048Z,61.59
2022-08-07T05:49:45.702Z,61.99
2022-08-07T05:50:45.688Z,64.70
2022-08-07T05:51:46.496Z,65.42
2022-08-07T05:52:45.695Z,66.63
2022-08-07T05:54:13.598Z,64.91
2022-08-07T05:54:56.087Z,65.28
2022-08-07T05:56:02.390Z,65.79
2022-08-07T05:56:45.626Z,68.40
2022-08-07T05:57:45.616Z,68.40
2022-08-07T05:58:49.417Z,66.77
2022-08-07T05:59:56.063Z,69.57
2022-08-07T06:00:46.318Z,69.78
2022-08-07T06:01:45.602Z,69.04
2022-08-07T06:02:45.558Z,70.86
2022-08-07T06:03:56.902Z,74.91
2022-08-07T06:04:45.571Z,75.42
2022-08-07T06:05:49.079Z,73.39
2022-08-07T06:06:47.877Z,74.44
2022-08-07T06:08:13.834Z,71.91
2022-08-07T06:08:46.720Z,72.01
2022-08-07T06:10:05.035Z,72.55
2022-08-07T06:10:46.510Z,74.37
2022-08-07T06:11:45.463Z,77.61
2022-08-07T06:12:45.449Z,78.77
2022-08-07T06:14:11.795Z,75.52
2022-08-07T06:14:49.341Z,75.32
2022-08-07T06:15:45.463Z,72.78
2022-08-07T06:16:45.417Z,71.37
2022-08-07T06:17:50.693Z,74.71
2022-08-07T06:18:51.735Z,72.38
2022-08-07T06:19:58.338Z,74.07
2022-08-07T06:20:49.564Z,69.81
2022-08-07T06:22:11.654Z,73.25
2022-08-07T06:23:01.703Z,73.16
2022-08-07T06:24:38.625Z,71.13
2022-08-07T06:24:57.756Z,74.37
2022-08-07T06:25:53.975Z,72.85
2022-08-07T06:26:45.293Z,72.92
2022-08-07T06:28:01.518Z,70.59
2022-08-07T06:28:45.298Z,71.60
2022-08-07T06:29:45.288Z,75.15
2022-08-07T06:30:46.171Z,75.96
2022-08-07T06:31:50.058Z,72.81
2022-08-07T06:32:45.231Z,69.68
2022-08-07T06:33:45.219Z,74.30
2022-08-07T06:34:45.562Z,73.80
2022-08-07T06:35:47.639Z,71.06
2022-08-07T06:36:45.185Z,72.17
2022-08-07T06:37:45.540Z,73.66
2022-08-07T06:38:58.414Z,72.14
2022-08-07T06:40:16.205Z,75.07
2022-08-07T06:40:45.876Z,77.67
2022-08-07T06:42:01.138Z,75.65
2022-08-07T06:42:46.649Z,77.17
2022-08-07T06:43:46.137Z,77.13
2022-08-07T06:44:45.099Z,77.33
2022-08-07T06:45:45.088Z,80.06
2022-08-07T06:46:53.361Z,81.17
2022-08-07T06:47:57.339Z,79.96
2022-08-07T06:48:46.078Z,80.16
2022-08-07T06:49:51.110Z,81.07
2022-08-07T06:50:47.858Z,79.01
2022-08-07T06:51:49.551Z,81.60
2022-08-07T06:52:45.203Z,82.17
2022-08-07T06:55:29.607Z,84.29
2022-08-07T06:55:34.340Z,84.75
2022-08-07T06:56:00.436Z,82.53
2022-08-07T06:56:49.842Z,84.11
2022-08-07T06:57:52.117Z,87.60
2022-08-07T07:00:11.913Z,92.25
2022-08-07T07:00:15.098Z,89.06
2022-08-07T07:00:45.945Z,92.50
2022-08-07T07:01:50.635Z,93.37
2022-08-07T07:02:54.569Z,93.16
2022-08-07T07:03:50.009Z,93.93
2022-08-07T07:04:55.165Z,95.49
2022-08-07T07:06:05.362Z,94.94
2022-08-07T07:07:00.613Z,94.90
2022-08-07T07:07:59.550Z,95.05
2022-08-07T07:08:46.624Z,95.65
2022-08-07T07:09:44.824Z,95.61
2022-08-07T07:10:54.951Z,95.21
2022-08-07T07:12:08.936Z,94.60
2022-08-07T07:12:48.903Z,94.90
2022-08-07T07:13:57.833Z,95.26
2022-08-07T07:14:45.792Z,95.62
2022-08-07T07:15:44.802Z,94.12
2022-08-07T07:16:50.578Z,93.47
2022-08-07T07:17:45.764Z,94.27
2022-08-07T07:18:48.136Z,92.36
2022-08-07T07:19:57.522Z,93.93
2022-08-07T07:20:44.704Z,93.58
2022-08-07T07:22:05.152Z,90.03
2022-08-07T07:24:08.316Z,88.33
2022-08-07T07:24:09.176Z,81.39
2022-08-07T07:24:58.369Z,79.63
2022-08-07T07:26:35.183Z,82.39
2022-08-07T07:26:49.582Z,81.19
2022-08-07T07:27:55.557Z,75.79
2022-08-07T07:29:28.522Z,78.03
2022-08-07T07:30:09.118Z,81.03
2022-08-07T07:30:44.598Z,77.13
2022-08-07T07:31:46.828Z,77.69
2022-08-07T07:32:44.576Z,74.93
2022-08-07T07:33:44.567Z,79.23
2022-08-07T07:34:45.870Z,73.83
2022-08-07T07:36:04.087Z,71.89
2022-08-07T07:36:48.015Z,75.96
2022-08-07T07:37:52.507Z,76.93
2022-08-07T07:38:46.126Z,71.73
2022-08-07T07:39:52.423Z,71.12
2022-08-07T07:40:44.785Z,72.92
2022-08-07T07:41:50.789Z,70.32
2022-08-07T07:42:51.067Z,76.83
2022-08-07T07:44:14.614Z,79.79
2022-08-07T07:44:45.586Z,71.09
2022-08-07T07:46:39.830Z,72.42
2022-08-07T07:46:55.757Z,71.42
2022-08-07T07:47:52.627Z,71.86
2022-08-07T07:48:45.931Z,71.79
2022-08-07T07:50:33.220Z,66.86
2022-08-07T07:50:45.473Z,65.17
2022-08-07T07:51:57.808Z,63.77
2022-08-07T07:52:46.946Z,69.06
2022-08-07T07:53:52.521Z,63.07
2022-08-07T07:54:51.193Z,67.96
2022-08-07T07:55:54.922Z,67.23
2022-08-07T07:56:44.431Z,69.36
2022-08-07T07:57:52.388Z,70.26
2022-08-07T07:58:44.679Z,67.19
2022-08-07T07:59:52.223Z,63.14
2022-08-07T08:00:47.784Z,58.33
2022-08-07T08:02:02.378Z,56.60
2022-08-07T08:03:01.295Z,54.68
2022-08-07T08:04:10.231Z,55.18
2022-08-07T08:04:45.328Z,54.98
2022-08-07T08:05:55.247Z,57.24
2022-08-07T08:06:52.323Z,53.74
2022-08-07T08:07:51.441Z,53.41
2022-08-07T08:08:44.193Z,53.02
2022-08-07T08:09:52.369Z,53.49
2022-08-07T08:10:45.258Z,52.89
2022-08-07T08:12:00.120Z,51.42
2022-08-07T08:12:52.571Z,52.32
2022-08-07T08:13:53.890Z,50.90
2022-08-07T08:14:45.155Z,50.31
2022-08-07T08:15:59.214Z,51.67
2022-08-07T08:16:50.576Z,51.77
2022-08-07T08:17:57.687Z,50.48
2022-08-07T08:18:45.194Z,50.05
2022-08-07T08:20:17.523Z,49.96
2022-08-07T08:20:44.075Z,49.07
2022-08-07T08:21:59.143Z,48.89
2022-08-07T08:22:55.829Z,48.96
2022-08-07T08:23:45.139Z,48.25
2022-08-07T08:24:45.456Z,49.81
2022-08-07T08:25:49.192Z,48.60
2022-08-07T08:26:44.006Z,49.26
2022-08-07T08:27:56.457Z,48.59
2022-08-07T08:28:45.070Z,50.03
2022-08-07T08:29:54.114Z,50.23
2022-08-07T08:30:51.158Z,50.01
2022-08-07T08:32:17.521Z,49.38
2022-08-07T08:32:49.025Z,50.58
2022-08-07T08:33:49.596Z,48.86
2022-08-07T08:34:44.850Z,48.35
2022-08-07T08:35:49.970Z,48.54
2022-08-07T08:36:46.275Z,50.11
2022-08-07T08:38:01.736Z,48.22
2022-08-07T08:38:44.948Z,49.09
2022-08-07T08:39:54.876Z,48.02
2022-08-07T08:40:46.845Z,49.24
2022-08-07T08:41:57.311Z,50.58
2022-08-07T08:42:43.860Z,47.31
2022-08-07T08:43:56.269Z,47.58
2022-08-07T08:44:44.748Z,47.53
2022-08-07T08:45:58.957Z,46.07
2022-08-07T08:46:45.938Z,47.06
2022-08-07T08:47:52.403Z,47.56
2022-08-07T08:48:43.782Z,46.79
2022-08-07T08:50:02.126Z,47.26
2022-08-07T08:50:43.763Z,46.07
2022-08-07T08:52:12.971Z,47.44
2022-08-07T08:52:54.276Z,46.23
2022-08-07T08:53:43.736Z,45.41
2022-08-07T08:54:43.721Z,44.80
2022-08-07T08:55:53.262Z,43.61
2022-08-07T08:56:47.302Z,44.32
2022-08-07T08:57:43.702Z,44.15
2022-08-07T08:58:43.680Z,44.64
2022-08-07T08:59:48.039Z,45.06
2022-08-07T09:00:48.650Z,45.34
2022-08-07T09:01:46.447Z,46.62
2022-08-07T09:02:43.818Z,45.53
2022-08-07T09:03:47.352Z,45.01
2022-08-07T09:04:43.621Z,45.51
2022-08-07T09:05:43.617Z,43.12
2022-08-07T09:06:47.871Z,42.43
2022-08-07T09:07:46.400Z,42.70
2022-08-07T09:08:43.578Z,41.59
2022-08-07T09:09:43.574Z,42.08
2022-08-07T09:10:44.244Z,42.58
2022-08-07T09:11:55.449Z,43.07
2022-08-07T09:12:53.430Z,43.96
2022-08-07T09:13:44.565Z,42.70
2022-08-07T09:14:50.998Z,43.71
2022-08-07T09:16:22.880Z,43.88
2022-08-07T09:16:45.649Z,44.58
2022-08-07T09:17:59.505Z,44.18
2022-08-07T09:18:52.998Z,43.47
2022-08-07T09:19:51.609Z,44.64
2022-08-07T09:20:43.461Z,43.33
2022-08-07T09:22:09.713Z,44.12
2022-08-07T09:24:33.848Z,42.14
2022-08-07T09:24:54.825Z,43.01
2022-08-07T09:24:58.995Z,41.53
2022-08-07T09:25:44.432Z,41.83
2022-08-07T09:26:47.909Z,41.46
2022-08-07T09:28:00.711Z,41.77
2022-08-07T09:30:01.830Z,41.61
2022-08-07T09:30:03.873Z,43.39
2022-08-07T09:30:46.469Z,42.01
2022-08-07T09:31:48.601Z,43.31
2022-08-07T09:32:44.364Z,43.66
2022-08-07T09:33:56.769Z,42.78
2022-08-07T09:34:43.329Z,42.80
2022-08-07T09:36:03.326Z,43.07
2022-08-07T09:36:46.745Z,43.33
2022-08-07T09:37:48.162Z,42.24
2022-08-07T09:38:43.281Z,43.84
2022-08-07T09:39:55.488Z,43.15
2022-08-07T09:40:44.296Z,44.31
2022-08-07T09:42:03.217Z,45.31
2022-08-07T09:42:45.579Z,44.86
2022-08-07T09:44:06.092Z,45.90
2022-08-07T09:44:58.656Z,43.10
2022-08-07T09:47:51.179Z,43.33
2022-08-07T09:47:51.427Z,43.01
2022-08-07T09:47:56.157Z,42.95
2022-08-07T09:48:56.104Z,41.43
2022-08-07T09:50:00.934Z,40.13
2022-08-07T09:50:43.167Z,39.47
2022-08-07T09:52:10.470Z,39.78
2022-08-07T09:52:44.175Z,40.48
2022-08-07T09:53:50.111Z,41.35
2022-08-07T09:54:43.125Z,40.55
2022-08-07T09:56:03.650Z,38.60
2022-08-07T09:56:43.104Z,39.78
2022-08-07T09:57:46.617Z,39.20
2022-08-07T09:58:43.081Z,41.00
2022-08-07T10:00:00.258Z,41.47
2022-08-07T10:00:43.064Z,40.19
2022-08-07T10:01:50.954Z,39.78
2022-08-07T10:02:55.072Z,38.99
2022-08-07T10:04:05.692Z,40.53
2022-08-07T10:04:45.925Z,40.41
2022-08-07T10:06:01.324Z,39.31
2022-08-07T10:06:53.884Z,41.16
2022-08-07T10:07:53.801Z,39.17
2022-08-07T10:08:44.019Z,39.76
2022-08-07T10:10:01.131Z,39.79
2022-08-07T10:11:16.916Z,40.98
2022-08-07T10:12:01.259Z,39.95
2022-08-07T10:12:52.661Z,38.74
2022-08-07T10:14:00.337Z,37.65
2022-08-07T10:14:42.944Z,37.34
2022-08-07T10:15:44.761Z,36.75
2022-08-07T10:16:43.180Z,38.24
2022-08-07T10:18:02.690Z,39.42
2022-08-07T10:18:42.887Z,38.22
2022-08-07T10:19:42.874Z,40.53
2022-08-07T10:20:44.443Z,41.31
2022-08-07T10:22:12.664Z,41.77
2022-08-07T10:22:43.090Z,39.11
2022-08-07T10:24:05.648Z,39.40
2022-08-07T10:24:42.827Z,39.66
2022-08-07T10:25:43.624Z,39.32
2022-08-07T10:26:44.194Z,39.32
2022-08-07T10:27:46.045Z,37.36
2022-08-07T10:28:49.518Z,37.16
2022-08-07T10:29:46.018Z,37.34
2022-08-07T10:30:42.772Z,38.39
2022-08-07T10:31:42.978Z,37.80
2022-08-07T10:32:52.512Z,37.01
2022-08-07T10:34:06.143Z,36.65
2022-08-07T10:34:42.735Z,37.95
2022-08-07T10:35:55.205Z,38.34
2022-08-07T10:36:45.503Z,37.80
2022-08-07T10:38:00.132Z,37.84
2022-08-07T10:38:48.362Z,38.24
2022-08-07T10:40:02.662Z,38.28
2022-08-07T10:40:42.677Z,37.57
2022-08-07T10:41:51.773Z,37.42
2022-08-07T10:42:42.757Z,36.16
2022-08-07T10:43:42.650Z,37.63
2022-08-07T10:44:45.127Z,36.15
2022-08-07T10:45:44.610Z,35.99
2022-08-07T10:46:42.761Z,35.64
2022-08-07T10:47:51.498Z,36.09
2022-08-07T10:48:44.154Z,34.62
2022-08-07T10:49:49.444Z,35.52
2022-08-07T10:50:44.857Z,35.52
2022-08-07T10:52:01.825Z,35.60
2022-08-07T10:52:43.593Z,34.52
2022-08-07T10:53:44.983Z,36.37
2022-08-07T10:54:42.553Z,34.39
2022-08-07T10:55:43.561Z,34.98
2022-08-07T10:56:42.523Z,35.66
2022-08-07T10:57:42.512Z,34.62
2022-08-07T10:58:42.508Z,34.92
2022-08-07T10:59:47.561Z,34.69
2022-08-07T11:00:43.262Z,33.48
2022-08-07T11:01:51.717Z,32.78
2022-08-07T11:02:42.516Z,33.90
2022-08-07T11:03:54.966Z,31.77
2022-08-07T11:04:42.447Z,32.43
2022-08-07T11:05:50.646Z,34.14
2022-08-07T11:06:44.482Z,34.57
2022-08-07T11:07:58.853Z,34.80
2022-08-07T11:08:43.437Z,34.92
2022-08-07T11:10:07.979Z,34.49
2022-08-07T11:10:43.417Z,33.50
2022-08-07T11:11:42.776Z,34.16
2022-08-07T11:12:43.332Z,33.79
2022-08-07T11:14:44.399Z,32.73
2022-08-07T11:14:57.343Z,33.62
2022-08-07T11:15:42.347Z,35.93
2022-08-07T11:16:42.334Z,35.82
2022-08-07T11:17:43.529Z,36.84
2022-08-07T11:18:42.386Z,37.59
2022-08-07T11:19:42.304Z,37.36
2022-08-07T11:20:42.321Z,36.13
2022-08-07T11:21:42.831Z,33.15
2022-08-07T11:22:46.223Z,33.05
2022-08-07T11:23:42.270Z,33.62
2022-08-07T11:24:45.555Z,34.59
2022-08-07T11:25:49.814Z,33.72
2022-08-07T11:26:48.319Z,32.94
2022-08-07T11:28:02.628Z,33.41
2022-08-07T11:28:42.425Z,34.90
2022-08-07T11:29:47.278Z,34.84
2022-08-07T11:30:43.222Z,32.95
2022-08-07T11:31:42.245Z,33.54
2022-08-07T11:32:42.271Z,32.94
2022-08-07T11:33:53.526Z,32.14
2022-08-07T11:34:42.565Z,31.84
2022-08-07T11:35:59.093Z,31.15
2022-08-07T11:36:42.143Z,31.08
2022-08-07T11:37:58.497Z,32.94
2022-08-07T11:38:43.154Z,32.06
2022-08-07T11:40:00.991Z,33.04
2022-08-07T11:40:49.453Z,32.06
2022-08-07T11:42:01.955Z,33.84
2022-08-07T11:42:43.147Z,32.55
2022-08-07T11:44:11.001Z,31.48
2022-08-07T11:44:52.584Z,32.58
2022-08-07T11:45:50.065Z,32.40
2022-08-07T11:46:43.085Z,32.78
2022-08-07T11:47:58.880Z,32.45
2022-08-07T11:48:58.774Z,29.32
2022-08-07T11:50:11.250Z,30.20
2022-08-07T11:50:44.615Z,29.81
2022-08-07T11:51:46.706Z,30.62
2022-08-07T11:52:41.995Z,30.64
2022-08-07T11:53:43.259Z,30.41
2022-08-07T11:54:46.316Z,30.49
2022-08-07T11:56:13.983Z,31.57
2022-08-07T11:56:43.011Z,30.38
2022-08-07T11:57:59.321Z,29.88
2022-08-07T11:58:42.962Z,29.95
2022-08-07T12:00:10.083Z,29.54
2022-08-07T12:00:42.945Z,29.64
2022-08-07T12:01:58.639Z,29.27
2022-08-07T12:02:41.938Z,30.34
2022-08-07T12:03:46.002Z,29.27
2022-08-07T12:04:41.889Z,29.74
2022-08-07T12:05:49.244Z,29.49
2022-08-07T12:06:51.736Z,29.77
2022-08-07T12:07:43.080Z,31.45
2022-08-07T12:08:42.553Z,31.52
2022-08-07T12:09:41.836Z,29.99
2022-08-07T12:10:42.186Z,31.42
2022-08-07T12:11:43.393Z,32.22
2022-08-07T12:12:41.808Z,33.79
2022-08-07T12:13:45.013Z,31.71
2022-08-07T12:14:41.788Z,32.46
2022-08-07T12:16:06.803Z,30.71
2022-08-07T12:16:41.778Z,30.62
2022-08-07T12:17:59.756Z,31.99
2022-08-07T12:18:45.225Z,30.43
2022-08-07T12:19:56.346Z,30.43
2022-08-07T12:20:42.762Z,31.11
2022-08-07T12:21:55.796Z,30.61
2022-08-07T12:22:56.575Z,30.62
2022-08-07T12:24:04.886Z,31.01
2022-08-07T12:24:42.721Z,29.83
2022-08-07T12:26:05.473Z,30.88
2022-08-07T12:26:46.970Z,30.22
2022-08-07T12:28:08.960Z,31.81
2022-08-07T12:28:44.916Z,33.26
2022-08-07T12:29:41.644Z,32.70
2022-08-07T12:30:46.808Z,32.30
2022-08-07T12:32:02.594Z,31.88
2022-08-07T12:32:42.643Z,29.80
2022-08-07T12:34:01.226Z,30.00
2022-08-07T12:34:42.129Z,30.72
2022-08-07T12:35:42.615Z,31.59
2022-08-07T12:36:42.166Z,31.48
2022-08-07T12:38:09.294Z,30.09
2022-08-07T12:38:47.429Z,30.18
2022-08-07T12:39:44.401Z,30.47
2022-08-07T12:40:47.607Z,29.99
2022-08-07T12:41:49.391Z,29.93
2022-08-07T12:42:41.526Z,31.83
2022-08-07T12:44:02.284Z,33.10
2022-08-07T12:44:42.993Z,33.38
2022-08-07T12:45:41.501Z,31.88
2022-08-07T12:46:41.509Z,32.35
2022-08-07T12:47:41.483Z,31.51
2022-08-07T12:48:52.394Z,32.03
2022-08-07T12:49:51.422Z,32.25
2022-08-07T12:50:49.338Z,31.63
2022-08-07T12:51:51.088Z,31.23
2022-08-07T12:52:41.433Z,31.62
2022-08-07T12:54:02.961Z,32.09